createdAt,value
2019-01-19T00:01:13.599Z,-0.30
2019-01-19T00:04:15.135Z,-0.40
2019-01-19T00:07:00.205Z,-0.40
2019-01-19T00:09:54.155Z,-0.40
2019-01-19T00:12:40.511Z,-0.20
2019-01-19T00:15:18.057Z,-0.40
2019-01-19T00:18:32.889Z,-0.40
2019-01-19T00:21:32.796Z,-0.40
2019-01-19T00:24:21.795Z,-0.40
2019-01-19T00:27:25.375Z,-0.30
2019-01-19T00:30:33.740Z,-0.40
2019-01-19T00:33:16.229Z,-0.30
2019-01-19T00:35:56.912Z,-0.30
2019-01-19T00:38:56.632Z,-0.40
2019-01-19T00:42:05.420Z,-0.40
2019-01-19T00:45:14.505Z,-0.30
2019-01-19T00:48:07.973Z,-0.40
2019-01-19T00:51:30.030Z,-0.40
2019-01-19T00:54:33.094Z,-0.40
2019-01-19T00:57:26.961Z,-0.40
2019-01-19T00:59:59.718Z,-0.40
2019-01-19T01:02:44.527Z,-0.40
2019-01-19T01:05:28.505Z,-0.40
2019-01-19T01:08:19.104Z,-0.40
2019-01-19T01:11:12.689Z,-0.30
2019-01-19T01:13:51.820Z,-0.30
2019-01-19T01:16:40.119Z,-0.30
2019-01-19T01:19:24.712Z,-0.30
2019-01-19T01:22:16.360Z,-0.30
2019-01-19T01:25:31.084Z,-0.30
2019-01-19T01:28:30.290Z,-0.30
2019-01-19T01:31:13.009Z,-0.30
2019-01-19T01:34:16.869Z,-0.30
2019-01-19T01:37:24.162Z,-0.30
2019-01-19T01:40:30.091Z,-0.30
2019-01-19T01:43:34.664Z,-0.40
2019-01-19T01:46:42.507Z,-0.30
2019-01-19T01:49:26.705Z,-0.30
2019-01-19T01:52:23.881Z,-0.30
2019-01-19T01:55:03.969Z,-0.40
2019-01-19T01:57:42.899Z,-0.30
2019-01-19T02:00:21.379Z,-0.30
2019-01-19T02:03:02.661Z,-0.40
2019-01-19T02:06:01.112Z,-0.40
2019-01-19T02:09:08.663Z,-0.40
2019-01-19T02:11:58.928Z,-0.30
2019-01-19T02:15:09.193Z,-0.40
2019-01-19T02:18:34.259Z,-0.40
2019-01-19T02:21:23.949Z,-0.50
2019-01-19T02:24:04.745Z,-0.50
2019-01-19T02:27:22.216Z,-0.50
2019-01-19T02:30:30.115Z,-0.50
2019-01-19T02:33:24.181Z,-0.60
2019-01-19T02:36:26.729Z,-0.60
2019-01-19T02:39:12.309Z,-0.60
2019-01-19T02:41:54.263Z,-0.60
2019-01-19T02:44:54.030Z,-0.60
2019-01-19T02:47:48.230Z,-0.60
2019-01-19T02:50:34.512Z,-0.70
2019-01-19T02:53:25.923Z,-0.60
2019-01-19T02:56:25.432Z,-0.50
2019-01-19T02:59:22.860Z,-0.60
2019-01-19T03:02:34.228Z,-0.60
2019-01-19T03:05:33.833Z,-0.60
2019-01-19T03:08:43.670Z,-0.60
2019-01-19T03:12:17.991Z,-0.70
2019-01-19T03:15:36.984Z,-0.70
2019-01-19T03:18:32.145Z,-0.70
2019-01-19T03:21:49.648Z,-0.60
2019-01-19T03:24:27.143Z,-0.70
2019-01-19T03:27:19.253Z,-0.70
2019-01-19T03:30:56.817Z,-0.70
2019-01-19T03:34:19.039Z,-0.60
2019-01-19T03:37:19.540Z,-0.70
2019-01-19T03:40:01.029Z,-0.70
2019-01-19T03:43:04.640Z,-0.70
2019-01-19T03:45:46.745Z,-0.80
2019-01-19T03:48:25.838Z,-0.80
2019-01-19T03:51:37.796Z,-0.80
2019-01-19T03:54:24.071Z,-0.80
2019-01-19T03:57:21.878Z,-0.80
2019-01-19T04:00:30.880Z,-0.80
2019-01-19T04:03:26.725Z,-0.80
2019-01-19T04:06:18.133Z,-0.80
2019-01-19T04:09:24.149Z,-0.80
2019-01-19T04:12:38.300Z,-0.80
2019-01-19T04:15:35.574Z,-0.90
2019-01-19T04:18:20.317Z,-0.90
2019-01-19T04:21:36.481Z,-1.00
2019-01-19T04:24:33.812Z,-1.10
2019-01-19T04:27:02.611Z,-1.10
2019-01-19T04:29:31.469Z,-1.10
2019-01-19T04:32:01.201Z,-1.10
2019-01-19T04:34:30.573Z,-1.10
2019-01-19T04:36:59.855Z,-1.10
2019-01-19T04:39:28.870Z,-1.10
2019-01-19T04:41:57.798Z,-1.10
2019-01-19T04:44:26.574Z,-1.00
2019-01-19T04:46:55.609Z,-1.00
2019-01-19T04:49:24.408Z,-1.00
2019-01-19T04:51:53.299Z,-1.00
2019-01-19T04:54:22.354Z,-1.00
2019-01-19T04:56:51.153Z,-1.00
2019-01-19T04:59:19.992Z,-1.00
2019-01-19T05:01:49.029Z,-1.00
2019-01-19T05:04:17.851Z,-1.00
2019-01-19T05:06:46.618Z,-1.00
2019-01-19T05:09:15.530Z,-1.00
2019-01-19T05:11:44.390Z,-1.00
2019-01-19T05:14:13.209Z,-0.90
2019-01-19T05:16:42.100Z,-1.00
2019-01-19T05:19:11.076Z,-0.90
2019-01-19T05:21:40.001Z,-1.00
2019-01-19T05:24:08.938Z,-0.90
2019-01-19T05:26:37.810Z,-0.90
2019-01-19T05:29:06.739Z,-1.00
2019-01-19T05:31:35.540Z,-0.90
2019-01-19T05:34:04.501Z,-0.90
2019-01-19T05:36:38.220Z,-0.90
2019-01-19T05:39:05.478Z,-0.90
2019-01-19T05:41:34.291Z,-0.90
2019-01-19T05:44:03.205Z,-0.80
2019-01-19T05:46:32.247Z,-0.90
2019-01-19T05:49:01.057Z,-0.90
2019-01-19T05:51:29.991Z,-0.90
2019-01-19T05:53:58.978Z,-0.90
2019-01-19T05:56:27.839Z,-0.90
2019-01-19T05:58:56.840Z,-0.90
2019-01-19T06:01:26.330Z,-0.90
2019-01-19T06:03:55.371Z,-0.90
2019-01-19T06:06:24.471Z,-0.90
2019-01-19T06:08:53.587Z,-0.90
2019-01-19T06:11:22.521Z,-0.90
2019-01-19T06:13:51.479Z,-1.00
2019-01-19T06:16:20.604Z,-1.00
2019-01-19T06:18:49.891Z,-1.00
2019-01-19T06:21:20.649Z,-1.00
2019-01-19T06:23:49.700Z,-1.00
2019-01-19T06:26:18.747Z,-1.00
2019-01-19T06:28:47.630Z,-1.00
2019-01-19T06:31:16.629Z,-1.00
2019-01-19T06:33:45.421Z,-1.00
2019-01-19T06:36:14.249Z,-0.90
2019-01-19T06:38:43.189Z,-0.90
2019-01-19T06:41:12.033Z,-0.90
2019-01-19T06:43:40.819Z,-0.90
2019-01-19T06:46:09.986Z,-0.90
2019-01-19T06:48:38.872Z,-1.00
2019-01-19T06:51:07.796Z,-1.00
2019-01-19T06:53:36.743Z,-1.00
2019-01-19T06:56:05.660Z,-1.00
2019-01-19T06:58:34.492Z,-1.00
2019-01-19T07:01:03.503Z,-1.00
2019-01-19T07:03:32.304Z,-1.00
2019-01-19T07:06:01.111Z,-1.00
2019-01-19T07:08:30.064Z,-1.00
2019-01-19T07:10:58.905Z,-0.90
2019-01-19T07:13:27.799Z,-0.90
2019-01-19T07:15:56.849Z,-0.80
2019-01-19T07:18:25.759Z,-0.80
2019-01-19T07:20:54.577Z,-0.80
2019-01-19T07:23:23.914Z,-0.80
2019-01-19T07:25:52.779Z,-0.80
2019-01-19T07:28:21.699Z,-0.80
2019-01-19T07:30:50.767Z,-0.90
2019-01-19T07:33:19.593Z,-0.80
2019-01-19T07:35:48.445Z,-0.80
2019-01-19T07:38:17.603Z,-0.80
2019-01-19T07:40:46.391Z,-0.80
2019-01-19T07:43:16.171Z,-0.80
2019-01-19T07:45:45.263Z,-0.70
2019-01-19T07:48:14.499Z,-0.80
2019-01-19T07:50:43.578Z,-0.70
2019-01-19T07:53:12.775Z,-0.80
2019-01-19T07:55:41.777Z,-0.70
2019-01-19T07:58:10.716Z,-0.70
2019-01-19T08:00:39.703Z,-0.70
2019-01-19T08:03:08.580Z,-0.70
2019-01-19T08:05:37.454Z,-0.70
2019-01-19T08:08:06.520Z,-0.70
2019-01-19T08:10:35.327Z,-0.60
2019-01-19T08:13:04.272Z,-0.60
2019-01-19T08:15:33.344Z,-0.70
2019-01-19T08:18:02.296Z,-0.60
2019-01-19T08:20:31.129Z,-0.60
2019-01-19T08:23:00.317Z,-0.60
2019-01-19T08:25:29.116Z,-0.60
2019-01-19T08:27:58.445Z,-0.60
2019-01-19T08:30:29.182Z,-0.50
2019-01-19T08:32:58.152Z,-0.50
2019-01-19T08:35:27.363Z,-0.50
2019-01-19T08:37:56.254Z,-0.40
2019-01-19T08:40:30.267Z,-0.50
2019-01-19T08:43:15.591Z,-0.40
2019-01-19T08:45:44.668Z,-0.40
2019-01-19T08:48:14.072Z,-0.40
2019-01-19T08:50:43.109Z,-0.30
2019-01-19T08:53:11.916Z,-0.30
2019-01-19T08:55:40.697Z,-0.20
2019-01-19T08:58:09.989Z,-0.10
2019-01-19T09:00:38.889Z,0.00
2019-01-19T09:03:07.837Z,0.00
2019-01-19T09:05:36.822Z,0.00
2019-01-19T09:08:05.825Z,0.00
2019-01-19T09:10:34.796Z,0.00
2019-01-19T09:13:03.908Z,0.20
2019-01-19T09:15:32.850Z,0.40
2019-01-19T09:18:01.694Z,0.60
2019-01-19T09:20:30.739Z,0.50
2019-01-19T09:23:04.312Z,0.50
2019-01-19T09:25:33.435Z,0.50
2019-01-19T09:28:02.364Z,0.50
2019-01-19T09:30:31.383Z,0.60
2019-01-19T09:33:00.298Z,0.60
2019-01-19T09:35:29.270Z,0.60
2019-01-19T09:37:58.341Z,0.70
2019-01-19T09:40:27.211Z,0.70
2019-01-19T09:42:56.077Z,0.80
2019-01-19T09:45:25.476Z,0.80
2019-01-19T09:47:54.589Z,0.80
2019-01-19T09:50:23.719Z,0.90
2019-01-19T09:52:52.714Z,1.00
2019-01-19T09:55:21.912Z,1.00
2019-01-19T09:57:50.701Z,1.00
2019-01-19T10:00:19.782Z,1.10
2019-01-19T10:02:48.772Z,1.10
2019-01-19T10:05:19.892Z,1.20
2019-01-19T10:07:49.068Z,1.20
2019-01-19T10:10:17.949Z,1.30
2019-01-19T10:12:47.116Z,1.30
2019-01-19T10:15:16.428Z,1.40
2019-01-19T10:17:45.441Z,1.40
2019-01-19T10:20:17.112Z,1.40
2019-01-19T10:22:46.036Z,1.50
2019-01-19T10:25:15.576Z,1.50
2019-01-19T10:27:44.722Z,1.60
2019-01-19T10:30:18.751Z,1.60
2019-01-19T10:32:48.070Z,1.70
2019-01-19T10:35:17.221Z,1.70
2019-01-19T10:37:46.215Z,1.70
2019-01-19T10:40:15.622Z,1.80
2019-01-19T10:42:44.708Z,1.80
2019-01-19T10:45:16.244Z,1.80
2019-01-19T10:47:45.181Z,1.90
2019-01-19T10:50:15.204Z,2.00
2019-01-19T10:52:44.418Z,2.00
2019-01-19T10:55:14.909Z,2.00
2019-01-19T10:57:43.803Z,2.00
2019-01-19T11:00:16.427Z,2.10
2019-01-19T11:02:45.289Z,2.10
2019-01-19T11:05:14.586Z,2.10
2019-01-19T11:07:45.973Z,2.10
2019-01-19T11:10:17.252Z,2.20
2019-01-19T11:12:46.277Z,2.20
2019-01-19T11:15:16.139Z,2.20
2019-01-19T11:17:45.087Z,2.20
2019-01-19T11:20:27.432Z,2.40
2019-01-19T11:22:56.936Z,2.40
2019-01-19T11:25:25.984Z,2.30
2019-01-19T11:27:55.912Z,2.30
2019-01-19T11:30:26.556Z,2.20
2019-01-19T11:32:55.419Z,2.30
2019-01-19T11:35:24.865Z,2.30
2019-01-19T11:37:53.829Z,2.30
2019-01-19T11:40:28.117Z,2.30
2019-01-19T11:42:56.967Z,2.30
2019-01-19T11:45:25.803Z,2.40
2019-01-19T11:47:54.911Z,2.30
2019-01-19T11:50:24.116Z,2.30
2019-01-19T11:52:53.093Z,2.40
2019-01-19T11:55:22.203Z,2.40
2019-01-19T11:57:53.266Z,2.40
2019-01-19T12:00:24.442Z,2.50
2019-01-19T12:02:57.134Z,2.50
2019-01-19T12:05:29.397Z,2.60
2019-01-19T12:08:01.665Z,2.60
2019-01-19T12:10:34.429Z,2.50
2019-01-19T12:13:05.942Z,2.70
2019-01-19T12:15:38.445Z,2.70
2019-01-19T12:18:10.925Z,2.70
2019-01-19T12:20:47.846Z,2.60
2019-01-19T12:23:20.720Z,2.70
2019-01-19T12:25:54.538Z,2.70
2019-01-19T12:28:29.103Z,2.70
2019-01-19T12:31:01.767Z,2.70
2019-01-19T12:33:30.830Z,2.70
2019-01-19T12:35:59.866Z,2.60
2019-01-19T12:38:29.043Z,2.70
2019-01-19T12:40:57.813Z,2.80
2019-01-19T12:43:26.770Z,2.80
2019-01-19T12:46:05.116Z,2.80
2019-01-19T12:48:34.022Z,3.00
2019-01-19T12:51:05.215Z,3.10
2019-01-19T12:53:34.217Z,3.20
2019-01-19T12:56:03.104Z,3.20
2019-01-19T12:58:31.959Z,3.20
2019-01-19T13:01:01.066Z,3.00
2019-01-19T13:03:29.953Z,3.00
2019-01-19T13:06:14.438Z,3.00
2019-01-19T13:08:43.353Z,3.00
2019-01-19T13:11:40.864Z,3.10
2019-01-19T13:14:09.784Z,3.10
2019-01-19T13:17:18.217Z,3.00
2019-01-19T13:20:29.632Z,3.00
2019-01-19T13:23:51.541Z,3.10
2019-01-19T13:27:02.754Z,3.10
2019-01-19T13:30:10.848Z,3.10
2019-01-19T13:32:56.383Z,3.10
2019-01-19T13:36:02.168Z,3.10
2019-01-19T13:39:02.185Z,3.10
2019-01-19T13:42:17.045Z,3.20
2019-01-19T13:45:09.987Z,3.30
2019-01-19T13:48:18.740Z,3.30
2019-01-19T13:51:25.563Z,3.30
2019-01-19T13:54:40.862Z,3.30
2019-01-19T13:57:55.576Z,3.40
2019-01-19T14:01:09.925Z,3.40
2019-01-19T14:03:47.134Z,3.40
2019-01-19T14:06:36.920Z,3.40
2019-01-19T14:10:03.069Z,3.30
2019-01-19T14:13:16.523Z,3.40
2019-01-19T14:16:17.244Z,3.40
2019-01-19T14:18:52.792Z,3.40
2019-01-19T14:21:43.655Z,3.40
2019-01-19T14:24:43.121Z,3.40
2019-01-19T14:27:46.035Z,3.40
2019-01-19T14:30:37.630Z,3.40
2019-01-19T14:34:06.237Z,3.40
2019-01-19T14:36:56.123Z,3.40
2019-01-19T14:39:39.818Z,3.40
2019-01-19T14:42:57.556Z,3.30
2019-01-19T14:46:17.378Z,3.30
2019-01-19T14:49:29.313Z,3.30
2019-01-19T14:52:45.373Z,3.30
2019-01-19T14:55:23.636Z,3.30
2019-01-19T14:58:29.326Z,3.30
2019-01-19T15:01:27.961Z,3.30
2019-01-19T15:04:36.689Z,3.20
2019-01-19T15:07:36.670Z,3.20
2019-01-19T15:10:42.619Z,3.10
2019-01-19T15:13:47.868Z,3.20
2019-01-19T15:16:40.095Z,3.20
2019-01-19T15:19:49.265Z,3.10
2019-01-19T15:22:54.469Z,3.10
2019-01-19T15:25:43.603Z,3.10
2019-01-19T15:28:53.757Z,3.00
2019-01-19T15:31:29.377Z,3.00
2019-01-19T15:35:06.440Z,2.90
2019-01-19T15:37:48.720Z,2.90
2019-01-19T15:40:32.200Z,2.90
2019-01-19T15:43:55.869Z,2.90
2019-01-19T15:47:09.151Z,2.80
2019-01-19T15:49:58.680Z,2.80
2019-01-19T15:53:17.823Z,2.70
2019-01-19T15:56:18.937Z,2.70
2019-01-19T15:59:46.611Z,2.70
2019-01-19T16:02:38.468Z,2.60
2019-01-19T16:05:43.054Z,2.50
2019-01-19T16:08:22.085Z,2.40
2019-01-19T16:11:19.863Z,2.40
2019-01-19T16:14:25.763Z,2.30
2019-01-19T16:17:34.101Z,2.30
2019-01-19T16:20:31.203Z,2.20
2019-01-19T16:23:31.067Z,2.30
2019-01-19T16:26:22.053Z,2.30
2019-01-19T16:29:38.661Z,2.20
2019-01-19T16:32:19.546Z,2.20
2019-01-19T16:35:37.846Z,2.20
2019-01-19T16:38:43.738Z,2.10
2019-01-19T16:41:48.400Z,2.10
2019-01-19T16:44:54.301Z,2.00
2019-01-19T16:47:54.610Z,2.00
2019-01-19T16:50:56.858Z,2.00
2019-01-19T16:54:10.993Z,2.00
2019-01-19T16:57:22.047Z,1.90
2019-01-19T17:00:12.934Z,1.90
2019-01-19T17:03:08.409Z,1.90
2019-01-19T17:06:05.043Z,1.90
2019-01-19T17:09:04.164Z,1.90
2019-01-19T17:11:58.778Z,1.80
2019-01-19T17:14:50.296Z,1.80
2019-01-19T17:17:56.615Z,1.80
2019-01-19T17:20:59.860Z,1.80
2019-01-19T17:23:36.340Z,1.80
2019-01-19T17:26:33.489Z,1.80
2019-01-19T17:29:38.232Z,1.80
2019-01-19T17:32:49.395Z,1.80
2019-01-19T17:35:31.870Z,1.70
2019-01-19T17:38:24.137Z,1.70
2019-01-19T17:41:28.722Z,1.70
2019-01-19T17:44:32.604Z,1.70
2019-01-19T17:47:20.971Z,1.70
2019-01-19T17:50:05.232Z,1.70
2019-01-19T17:52:59.497Z,1.60
2019-01-19T17:55:58.266Z,1.60
2019-01-19T17:58:49.835Z,1.50
2019-01-19T18:01:44.000Z,1.50
2019-01-19T18:04:41.691Z,1.50
2019-01-19T18:07:35.749Z,1.60
2019-01-19T18:10:41.595Z,1.60
2019-01-19T18:13:51.403Z,1.60
2019-01-19T18:17:00.244Z,1.50
2019-01-19T18:19:56.365Z,1.50
2019-01-19T18:23:08.446Z,1.50
2019-01-19T18:26:07.615Z,1.50
2019-01-19T18:29:23.300Z,1.50
2019-01-19T18:32:21.473Z,1.50
2019-01-19T18:35:36.579Z,1.50
2019-01-19T18:38:33.498Z,1.40
2019-01-19T18:41:20.837Z,1.40
2019-01-19T18:44:24.052Z,1.40
2019-01-19T18:47:26.683Z,1.40
2019-01-19T18:50:42.746Z,1.40
2019-01-19T18:53:42.898Z,1.40
2019-01-19T18:56:59.915Z,1.30
2019-01-19T18:59:48.116Z,1.20
2019-01-19T19:02:53.292Z,1.30
2019-01-19T19:06:11.028Z,1.20
2019-01-19T19:09:21.996Z,1.20
2019-01-19T19:12:21.718Z,1.20
2019-01-19T19:15:33.648Z,1.10
2019-01-19T19:18:25.049Z,1.10
2019-01-19T19:21:23.155Z,1.10
2019-01-19T19:24:09.959Z,1.10
2019-01-19T19:27:02.077Z,1.10
2019-01-19T19:30:02.645Z,1.10
2019-01-19T19:33:11.552Z,1.10
2019-01-19T19:36:27.790Z,1.00
2019-01-19T19:39:19.260Z,1.10
2019-01-19T19:42:35.953Z,1.00
2019-01-19T19:45:33.559Z,1.00
2019-01-19T19:48:40.819Z,1.00
2019-01-19T19:51:54.153Z,1.00
2019-01-19T19:54:23.716Z,1.00
2019-01-19T19:56:52.524Z,1.00
2019-01-19T19:59:21.742Z,1.00
2019-01-19T20:01:50.742Z,0.90
2019-01-19T20:04:19.888Z,0.90
2019-01-19T20:06:49.061Z,0.90
2019-01-19T20:09:18.239Z,0.90
2019-01-19T20:11:47.485Z,0.90
2019-01-19T20:14:19.638Z,0.90
2019-01-19T20:16:48.718Z,0.90
2019-01-19T20:19:17.547Z,0.90
2019-01-19T20:21:46.701Z,0.90
2019-01-19T20:24:15.613Z,0.80
2019-01-19T20:26:44.485Z,0.80
2019-01-19T20:29:16.068Z,0.80
2019-01-19T20:31:45.068Z,0.70
2019-01-19T20:34:14.075Z,0.70
2019-01-19T20:36:42.929Z,0.70
2019-01-19T20:39:11.878Z,0.70
2019-01-19T20:41:42.425Z,0.60
2019-01-19T20:44:14.444Z,0.60
2019-01-19T20:46:43.363Z,0.50
2019-01-19T20:49:12.179Z,0.50
2019-01-19T20:51:41.057Z,0.50
2019-01-19T20:54:10.132Z,0.50
2019-01-19T20:56:39.111Z,0.50
2019-01-19T20:59:08.081Z,0.50
2019-01-19T21:01:38.845Z,0.60
2019-01-19T21:04:07.983Z,0.50
2019-01-19T21:06:36.890Z,0.60
2019-01-19T21:09:10.517Z,0.50
2019-01-19T21:11:39.497Z,0.50
2019-01-19T21:14:08.572Z,0.60
2019-01-19T21:16:37.547Z,0.50
2019-01-19T21:19:06.562Z,0.50
2019-01-19T21:21:35.540Z,0.50
2019-01-19T21:24:04.583Z,0.40
2019-01-19T21:26:33.459Z,0.40
2019-01-19T21:29:02.457Z,0.40
2019-01-19T21:31:31.529Z,0.40
2019-01-19T21:34:00.568Z,0.40
2019-01-19T21:36:29.477Z,0.40
2019-01-19T21:38:58.632Z,0.40
2019-01-19T21:41:27.535Z,0.40
2019-01-19T21:43:56.384Z,0.40
2019-01-19T21:46:25.338Z,0.40
2019-01-19T21:48:54.203Z,0.40
2019-01-19T21:51:23.100Z,0.40
2019-01-19T21:53:52.103Z,0.40
2019-01-19T21:56:21.055Z,0.40
2019-01-19T21:58:49.864Z,0.30
2019-01-19T22:01:18.932Z,0.30
2019-01-19T22:03:47.837Z,0.30
2019-01-19T22:06:16.817Z,0.30
2019-01-19T22:08:45.685Z,0.20
2019-01-19T22:11:14.674Z,0.20
2019-01-19T22:13:43.514Z,0.20
2019-01-19T22:16:12.549Z,0.30
2019-01-19T22:18:41.415Z,0.30
2019-01-19T22:21:10.235Z,0.30
2019-01-19T22:23:39.275Z,0.30
2019-01-19T22:26:09.815Z,0.30
2019-01-19T22:28:38.761Z,0.30
2019-01-19T22:31:07.855Z,0.30
2019-01-19T22:33:36.907Z,0.40
2019-01-19T22:36:07.391Z,0.30
2019-01-19T22:38:36.653Z,0.40
2019-01-19T22:41:05.547Z,0.40
2019-01-19T22:43:34.925Z,0.40
2019-01-19T22:46:03.919Z,0.40
2019-01-19T22:48:32.787Z,0.30
2019-01-19T22:51:01.787Z,0.20
2019-01-19T22:53:30.958Z,0.20
2019-01-19T22:55:59.883Z,0.30
2019-01-19T22:58:28.695Z,0.30
2019-01-19T23:01:33.483Z,0.30
2019-01-19T23:04:02.456Z,0.20
2019-01-19T23:06:31.327Z,0.20
2019-01-19T23:09:00.485Z,0.10
2019-01-19T23:11:33.846Z,0.10
2019-01-19T23:14:00.612Z,0.10
2019-01-19T23:16:29.739Z,0.10
2019-01-19T23:18:58.561Z,0.10
2019-01-19T23:21:27.375Z,0.10
2019-01-19T23:23:56.371Z,0.10
2019-01-19T23:26:25.500Z,0.10
2019-01-19T23:28:54.466Z,0.10
2019-01-19T23:31:23.608Z,0.10
2019-01-19T23:33:52.469Z,0.10
2019-01-19T23:36:21.443Z,0.10
2019-01-19T23:38:50.469Z,0.00
2019-01-19T23:41:20.636Z,0.00
2019-01-19T23:43:49.460Z,0.00
2019-01-19T23:46:18.461Z,0.00
2019-01-19T23:48:47.374Z,-0.10
2019-01-19T23:51:16.330Z,-0.10
2019-01-19T23:53:45.414Z,-0.10
2019-01-19T23:56:14.309Z,-0.10
2019-01-19T23:58:43.261Z,-0.10
